createdAt,value
2022-11-05T00:00:33.260Z,4.65
2022-11-05T00:03:18.647Z,4.36
2022-11-05T00:06:07.182Z,4.57
2022-11-05T00:08:52.372Z,4.38
2022-11-05T00:11:19.055Z,4.55
2022-11-05T00:14:04.259Z,4.60
2022-11-05T00:16:46.024Z,4.53
2022-11-05T00:19:13.532Z,4.36
2022-11-05T00:21:58.951Z,4.45
2022-11-05T00:24:44.252Z,4.36
2022-11-05T00:27:11.000Z,4.48
2022-11-05T00:29:37.811Z,4.23
2022-11-05T00:32:04.782Z,4.54
2022-11-05T00:34:31.515Z,4.04
2022-11-05T00:36:58.127Z,4.32
2022-11-05T00:39:24.805Z,4.31
2022-11-05T00:42:11.383Z,4.35
2022-11-05T00:44:56.721Z,3.96
2022-11-05T00:47:41.995Z,4.39
2022-11-05T00:50:10.706Z,4.05
2022-11-05T00:52:56.753Z,4.32
2022-11-05T00:55:29.144Z,4.34
2022-11-05T00:57:56.903Z,4.51
2022-11-05T01:00:25.391Z,4.11
2022-11-05T01:02:52.496Z,3.80
2022-11-05T01:05:19.446Z,4.20
2022-11-05T01:07:46.162Z,3.91
2022-11-05T01:10:12.943Z,3.77
2022-11-05T01:12:39.704Z,3.74
2022-11-05T01:15:07.000Z,3.94
2022-11-05T01:17:33.628Z,3.60
2022-11-05T01:20:00.318Z,3.81
2022-11-05T01:22:27.082Z,3.78
2022-11-05T01:24:53.783Z,3.41
2022-11-05T01:27:20.581Z,3.94
2022-11-05T01:29:47.352Z,3.66
2022-11-05T01:32:14.053Z,2.33
2022-11-05T01:34:40.683Z,3.67
2022-11-05T01:37:07.511Z,3.69
2022-11-05T01:39:34.259Z,3.76
2022-11-05T01:42:00.947Z,3.84
2022-11-05T01:44:53.391Z,3.98
2022-11-05T01:47:23.120Z,4.04
2022-11-05T01:49:49.898Z,4.03
2022-11-05T01:52:16.608Z,3.43
2022-11-05T01:54:43.683Z,3.66
2022-11-05T01:57:11.296Z,4.20
2022-11-05T01:59:43.282Z,4.03
2022-11-05T02:02:10.797Z,4.13
2022-11-05T02:05:00.155Z,4.30
2022-11-05T02:07:28.899Z,2.58
2022-11-05T02:10:06.556Z,4.15
2022-11-05T02:12:34.429Z,4.00
2022-11-05T02:15:01.168Z,4.16
2022-11-05T02:17:40.495Z,4.26
2022-11-05T02:20:33.519Z,4.26
2022-11-05T02:23:32.767Z,4.17
2022-11-05T02:26:10.058Z,3.70
2022-11-05T02:29:08.705Z,3.70
2022-11-05T02:32:13.326Z,3.83
2022-11-05T02:35:03.560Z,4.10
2022-11-05T02:37:40.395Z,3.99
2022-11-05T02:40:18.246Z,4.22
2022-11-05T02:42:44.824Z,4.26
2022-11-05T02:45:14.348Z,4.45
2022-11-05T02:48:20.752Z,4.19
2022-11-05T02:51:05.590Z,4.31
2022-11-05T02:53:51.589Z,4.17
2022-11-05T02:56:24.117Z,4.26
2022-11-05T02:58:50.816Z,4.05
2022-11-05T03:01:17.626Z,4.06
2022-11-05T03:03:49.817Z,4.10
2022-11-05T03:06:50.513Z,4.03
2022-11-05T03:09:20.063Z,3.90
2022-11-05T03:12:14.901Z,3.89
2022-11-05T03:14:53.545Z,3.93
2022-11-05T03:17:45.238Z,3.95
2022-11-05T03:20:20.758Z,3.89
2022-11-05T03:23:06.393Z,3.45
2022-11-05T03:25:39.438Z,3.23
2022-11-05T03:28:08.668Z,3.45
2022-11-05T03:30:39.274Z,3.39
2022-11-05T03:33:12.389Z,3.60
2022-11-05T03:35:45.074Z,3.21
2022-11-05T03:38:17.153Z,3.37
2022-11-05T03:40:45.496Z,3.47
2022-11-05T03:43:14.541Z,3.49
2022-11-05T03:45:47.827Z,3.55
2022-11-05T03:48:18.675Z,3.30
2022-11-05T03:50:54.037Z,3.29
2022-11-05T03:53:28.408Z,3.50
2022-11-05T03:56:02.635Z,3.59
2022-11-05T03:58:30.894Z,3.81
2022-11-05T04:01:01.225Z,3.85
2022-11-05T04:03:28.225Z,3.73
2022-11-05T04:06:15.086Z,3.75
2022-11-05T04:09:00.343Z,3.76
2022-11-05T04:11:45.559Z,3.76
2022-11-05T04:14:12.207Z,3.91
2022-11-05T04:16:57.563Z,3.78
2022-11-05T04:19:42.993Z,3.86
2022-11-05T04:22:28.127Z,3.93
2022-11-05T04:24:54.782Z,3.92
2022-11-05T04:27:21.376Z,3.99
2022-11-05T04:30:06.611Z,3.88
2022-11-05T04:32:33.330Z,3.90
2022-11-05T04:34:59.949Z,3.93
2022-11-05T04:37:26.604Z,3.84
2022-11-05T04:39:53.198Z,3.56
2022-11-05T04:42:19.930Z,3.75
2022-11-05T04:44:46.542Z,3.94
2022-11-05T04:47:13.134Z,4.14
2022-11-05T04:49:39.749Z,4.02
2022-11-05T04:52:06.379Z,3.40
2022-11-05T04:54:33.039Z,3.74
2022-11-05T04:56:59.644Z,3.70
2022-11-05T04:59:26.236Z,3.56
2022-11-05T05:01:53.205Z,3.56
2022-11-05T05:04:20.662Z,3.50
2022-11-05T05:06:47.264Z,3.71
2022-11-05T05:09:13.885Z,3.66
2022-11-05T05:11:41.111Z,4.06
2022-11-05T05:14:08.563Z,3.72
2022-11-05T05:16:35.168Z,3.56
2022-11-05T05:19:01.862Z,4.06
2022-11-05T05:21:40.936Z,3.75
2022-11-05T05:24:13.451Z,3.64
2022-11-05T05:26:45.779Z,4.03
2022-11-05T05:29:13.011Z,3.95
2022-11-05T05:31:40.184Z,3.75
2022-11-05T05:34:08.015Z,4.10
2022-11-05T05:36:34.638Z,2.84
2022-11-05T05:39:01.328Z,4.14
2022-11-05T05:41:27.908Z,4.18
2022-11-05T05:43:54.487Z,4.34
2022-11-05T05:46:21.109Z,4.12
2022-11-05T05:48:52.357Z,4.08
2022-11-05T05:51:19.788Z,4.41
2022-11-05T05:53:46.718Z,4.30
2022-11-05T05:56:15.121Z,4.18
2022-11-05T05:58:42.102Z,4.11
2022-11-05T06:01:17.168Z,4.23
2022-11-05T06:03:45.459Z,3.76
2022-11-05T06:06:13.226Z,4.56
2022-11-05T06:08:40.080Z,4.76
2022-11-05T06:11:07.691Z,4.63
2022-11-05T06:13:34.751Z,4.37
2022-11-05T06:16:02.856Z,4.49
2022-11-05T06:18:31.007Z,4.50
2022-11-05T06:21:05.347Z,4.41
2022-11-05T06:23:35.706Z,4.26
2022-11-05T06:26:04.427Z,4.35
2022-11-05T06:28:31.237Z,4.07
2022-11-05T06:30:57.973Z,4.35
2022-11-05T06:33:25.139Z,4.53
2022-11-05T06:35:52.741Z,4.68
2022-11-05T06:38:19.506Z,4.42
2022-11-05T06:40:46.441Z,4.19
2022-11-05T06:43:13.425Z,4.53
2022-11-05T06:45:40.338Z,4.85
2022-11-05T06:48:06.958Z,4.71
2022-11-05T06:50:33.663Z,4.44
2022-11-05T06:53:01.761Z,5.04
2022-11-05T06:55:29.937Z,4.25
2022-11-05T06:57:57.427Z,4.93
2022-11-05T07:00:25.116Z,4.68
2022-11-05T07:02:51.683Z,4.49
2022-11-05T07:05:18.311Z,4.81
2022-11-05T07:07:45.726Z,4.97
2022-11-05T07:10:15.646Z,4.90
2022-11-05T07:12:42.901Z,4.74
2022-11-05T07:15:11.539Z,5.11
2022-11-05T07:17:39.062Z,5.19
2022-11-05T07:20:06.987Z,5.12
2022-11-05T07:22:34.638Z,4.84
2022-11-05T07:25:01.476Z,5.18
2022-11-05T07:27:28.101Z,5.27
2022-11-05T07:29:54.760Z,5.35
2022-11-05T07:32:21.384Z,4.99
2022-11-05T07:34:48.006Z,5.15
2022-11-05T07:37:16.666Z,5.49
2022-11-05T07:39:43.347Z,5.24
2022-11-05T07:42:13.964Z,5.50
2022-11-05T07:44:40.917Z,5.27
2022-11-05T07:47:07.736Z,5.41
2022-11-05T07:49:34.411Z,5.59
2022-11-05T07:52:01.091Z,5.71
2022-11-05T07:54:27.752Z,5.71
2022-11-05T07:56:54.402Z,5.81
2022-11-05T07:59:20.990Z,5.85
2022-11-05T08:01:47.856Z,5.81
2022-11-05T08:04:14.639Z,5.86
2022-11-05T08:06:41.254Z,5.88
2022-11-05T08:09:07.913Z,5.58
2022-11-05T08:11:35.813Z,6.00
2022-11-05T08:14:02.436Z,5.98
2022-11-05T08:16:29.040Z,6.06
2022-11-05T08:18:55.698Z,6.16
2022-11-05T08:21:22.355Z,5.99
2022-11-05T08:23:48.968Z,6.47
2022-11-05T08:26:19.515Z,6.36
2022-11-05T08:28:46.140Z,6.72
2022-11-05T08:31:14.396Z,6.98
2022-11-05T08:33:41.058Z,6.76
2022-11-05T08:36:07.798Z,6.89
2022-11-05T08:38:34.477Z,6.66
2022-11-05T08:41:01.146Z,6.89
2022-11-05T08:43:27.699Z,7.13
2022-11-05T08:45:55.100Z,7.10
2022-11-05T08:48:21.787Z,7.20
2022-11-05T08:50:49.047Z,6.72
2022-11-05T08:53:16.468Z,6.49
2022-11-05T08:55:44.261Z,6.59
2022-11-05T08:58:14.907Z,6.90
2022-11-05T09:00:42.752Z,6.70
2022-11-05T09:03:11.060Z,6.59
2022-11-05T09:05:40.021Z,6.81
2022-11-05T09:08:12.244Z,6.47
2022-11-05T09:10:40.960Z,6.65
2022-11-05T09:13:11.706Z,6.63
2022-11-05T09:15:42.246Z,6.67
2022-11-05T09:18:12.990Z,6.59
2022-11-05T09:20:40.169Z,6.36
2022-11-05T09:23:08.392Z,6.44
2022-11-05T09:25:35.201Z,6.62
2022-11-05T09:28:06.780Z,6.73
2022-11-05T09:30:33.446Z,6.84
2022-11-05T09:33:00.181Z,6.87
2022-11-05T09:35:26.778Z,6.47
2022-11-05T09:37:58.191Z,7.11
2022-11-05T09:40:32.031Z,7.20
2022-11-05T09:42:59.760Z,7.47
2022-11-05T09:45:28.846Z,7.55
2022-11-05T09:48:10.912Z,7.30
2022-11-05T09:50:42.518Z,7.62
2022-11-05T09:53:18.237Z,7.57
2022-11-05T09:55:57.079Z,7.48
2022-11-05T09:58:45.797Z,7.89
2022-11-05T10:01:20.167Z,7.73
2022-11-05T10:03:50.746Z,8.02
2022-11-05T10:06:28.004Z,8.13
2022-11-05T10:09:02.103Z,8.17
2022-11-05T10:11:35.395Z,7.76
2022-11-05T10:14:12.161Z,7.96
2022-11-05T10:16:46.250Z,7.94
2022-11-05T10:19:26.276Z,8.15
2022-11-05T10:22:09.789Z,8.09
2022-11-05T10:24:37.785Z,8.07
2022-11-05T10:27:05.628Z,8.04
2022-11-05T10:29:34.848Z,7.95
2022-11-05T10:32:05.578Z,7.92
2022-11-05T10:34:34.933Z,8.05
2022-11-05T10:37:01.936Z,7.88
2022-11-05T10:39:31.281Z,8.12
2022-11-05T10:42:22.067Z,7.98
2022-11-05T10:45:14.050Z,7.93
2022-11-05T10:48:18.285Z,7.98
2022-11-05T10:50:45.074Z,7.63
2022-11-05T10:53:14.377Z,7.79
2022-11-05T10:55:48.984Z,7.68
2022-11-05T10:58:15.584Z,7.74
2022-11-05T11:01:00.849Z,7.84
2022-11-05T11:03:49.115Z,7.85
2022-11-05T11:06:21.764Z,7.80
2022-11-05T11:08:50.311Z,7.71
2022-11-05T11:11:29.188Z,7.62
2022-11-05T11:14:14.077Z,7.68
2022-11-05T11:16:47.311Z,7.52
2022-11-05T11:19:24.874Z,7.75
2022-11-05T11:22:03.680Z,7.82
2022-11-05T11:24:42.208Z,7.62
2022-11-05T11:27:24.860Z,7.64
2022-11-05T11:30:00.009Z,7.49
2022-11-05T11:32:33.350Z,7.65
2022-11-05T11:35:01.182Z,7.46
2022-11-05T11:37:35.676Z,7.57
2022-11-05T11:40:13.144Z,8.10
2022-11-05T11:42:44.788Z,8.25
2022-11-05T11:45:27.106Z,8.23
2022-11-05T11:47:56.090Z,8.37
2022-11-05T11:50:55.753Z,8.84
2022-11-05T11:53:22.351Z,8.86
2022-11-05T11:55:54.998Z,8.53
2022-11-05T11:58:40.348Z,8.47
2022-11-05T12:01:43.566Z,8.26
2022-11-05T12:04:30.221Z,8.50
2022-11-05T12:07:20.179Z,8.35
2022-11-05T12:09:59.751Z,7.47
2022-11-05T12:12:51.873Z,7.69
2022-11-05T12:15:39.823Z,7.77
2022-11-05T12:18:12.588Z,7.45
2022-11-05T12:21:08.340Z,7.62
2022-11-05T12:23:38.192Z,7.71
2022-11-05T12:26:23.671Z,7.81
2022-11-05T12:29:19.602Z,8.17
2022-11-05T12:32:22.376Z,8.20
2022-11-05T12:35:26.675Z,8.27
2022-11-05T12:38:12.723Z,8.25
2022-11-05T12:40:55.029Z,8.18
2022-11-05T12:43:33.821Z,8.14
2022-11-05T12:46:14.346Z,8.25
2022-11-05T12:48:56.499Z,8.25
2022-11-05T12:51:32.220Z,8.22
2022-11-05T12:54:23.358Z,8.16
2022-11-05T12:56:57.585Z,7.98
2022-11-05T12:59:41.670Z,8.35
2022-11-05T13:02:20.603Z,8.67
2022-11-05T13:05:01.585Z,8.50
2022-11-05T13:07:33.663Z,7.73
2022-11-05T13:10:29.889Z,9.49
2022-11-05T13:13:41.386Z,8.58
2022-11-05T13:16:23.195Z,10.53
2022-11-05T13:19:18.026Z,11.42
2022-11-05T13:21:50.721Z,11.68
2022-11-05T13:24:33.861Z,11.19
2022-11-05T13:27:18.991Z,9.87
2022-11-05T13:29:51.564Z,9.27
2022-11-05T13:32:24.415Z,9.78
2022-11-05T13:35:03.119Z,10.02
2022-11-05T13:37:54.386Z,9.89
2022-11-05T13:40:31.508Z,9.80
2022-11-05T13:43:04.323Z,9.65
2022-11-05T13:45:52.703Z,9.64
2022-11-05T13:48:19.807Z,9.40
2022-11-05T13:51:23.178Z,8.99
2022-11-05T13:53:59.442Z,8.49
2022-11-05T13:56:39.283Z,8.42
2022-11-05T13:59:20.249Z,8.42
2022-11-05T14:02:00.772Z,8.23
2022-11-05T14:04:30.951Z,7.57
2022-11-05T14:07:16.635Z,8.15
2022-11-05T14:09:44.382Z,7.84
2022-11-05T14:12:27.680Z,8.53
2022-11-05T14:15:01.265Z,7.28
2022-11-05T14:17:50.181Z,7.92
2022-11-05T14:20:36.096Z,8.17
2022-11-05T14:23:17.858Z,8.21
2022-11-05T14:25:44.628Z,8.19
2022-11-05T14:28:36.526Z,8.10
2022-11-05T14:31:16.899Z,8.10
2022-11-05T14:34:14.098Z,8.16
2022-11-05T14:36:46.125Z,7.49
2022-11-05T14:39:27.571Z,7.78
2022-11-05T14:42:08.565Z,7.65
2022-11-05T14:44:36.012Z,7.40
2022-11-05T14:47:05.994Z,7.58
2022-11-05T14:49:37.787Z,7.68
2022-11-05T14:52:10.723Z,7.79
2022-11-05T14:54:56.301Z,7.82
2022-11-05T14:57:44.485Z,7.81
2022-11-05T15:00:29.616Z,8.02
2022-11-05T15:02:58.735Z,7.92
2022-11-05T15:05:31.578Z,8.14
2022-11-05T15:07:59.036Z,7.88
2022-11-05T15:10:35.193Z,7.33
2022-11-05T15:13:04.831Z,7.69
2022-11-05T15:15:44.109Z,7.54
2022-11-05T15:18:26.998Z,7.52
2022-11-05T15:20:58.350Z,7.36
2022-11-05T15:23:35.937Z,7.12
2022-11-05T15:26:12.800Z,7.22
2022-11-05T15:28:52.875Z,7.14
2022-11-05T15:31:21.554Z,7.07
2022-11-05T15:33:48.471Z,6.96
2022-11-05T15:36:26.309Z,6.74
2022-11-05T15:39:22.887Z,6.76
2022-11-05T15:41:40.277Z,6.55
2022-11-05T15:44:23.976Z,6.42
2022-11-05T15:47:11.508Z,6.60
2022-11-05T15:49:38.504Z,6.49
2022-11-05T15:52:05.347Z,5.79
2022-11-05T15:54:32.313Z,6.07
2022-11-05T15:56:59.879Z,5.97
2022-11-05T15:59:29.061Z,6.30
2022-11-05T16:02:13.247Z,6.33
2022-11-05T16:04:40.420Z,5.88
2022-11-05T16:07:10.421Z,6.27
2022-11-05T16:09:41.074Z,6.18
2022-11-05T16:12:24.253Z,6.15
2022-11-05T16:14:57.188Z,5.93
2022-11-05T16:17:27.418Z,5.47
2022-11-05T16:19:54.740Z,4.50
2022-11-05T16:22:21.699Z,5.15
2022-11-05T16:24:49.071Z,4.66
2022-11-05T16:27:21.159Z,5.71
2022-11-05T16:29:56.441Z,6.11
2022-11-05T16:32:31.036Z,6.07
2022-11-05T16:35:04.616Z,6.08
2022-11-05T16:37:37.924Z,5.84
2022-11-05T16:40:17.930Z,6.15
2022-11-05T16:42:48.525Z,5.87
2022-11-05T16:45:17.656Z,5.72
2022-11-05T16:47:45.650Z,5.97
2022-11-05T16:50:25.587Z,6.31
2022-11-05T16:52:53.038Z,6.50
2022-11-05T16:55:20.327Z,6.37
2022-11-05T16:57:52.195Z,6.30
2022-11-05T17:00:20.640Z,6.56
2022-11-05T17:02:48.344Z,6.65
2022-11-05T17:05:41.878Z,6.35
2022-11-05T17:08:08.837Z,6.53
2022-11-05T17:10:35.781Z,6.12
2022-11-05T17:13:02.368Z,6.25
2022-11-05T17:15:35.783Z,6.63
2022-11-05T17:18:04.634Z,6.39
2022-11-05T17:20:39.789Z,6.48
2022-11-05T17:23:14.295Z,6.06
2022-11-05T17:25:43.571Z,5.63
2022-11-05T17:28:11.374Z,5.22
2022-11-05T17:30:41.367Z,5.82
2022-11-05T17:33:09.783Z,3.96
2022-11-05T17:35:40.882Z,5.98
2022-11-05T17:38:08.838Z,5.86
2022-11-05T17:40:36.603Z,6.05
2022-11-05T17:43:04.189Z,5.40
2022-11-05T17:45:31.036Z,5.60
2022-11-05T17:47:57.776Z,4.98
2022-11-05T17:50:24.698Z,4.00
2022-11-05T17:52:51.550Z,4.05
2022-11-05T17:55:18.470Z,3.85
2022-11-05T17:57:49.881Z,4.77
2022-11-05T18:00:22.455Z,5.01
2022-11-05T18:02:51.919Z,4.55
2022-11-05T18:05:20.323Z,4.33
2022-11-05T18:07:48.060Z,6.17
2022-11-05T18:10:15.695Z,5.86
2022-11-05T18:12:43.099Z,6.08
2022-11-05T18:15:10.240Z,5.59
2022-11-05T18:17:37.000Z,5.72
2022-11-05T18:20:10.727Z,5.47
2022-11-05T18:22:42.369Z,5.24
2022-11-05T18:25:10.224Z,5.77
2022-11-05T18:27:37.445Z,5.66
2022-11-05T18:30:05.012Z,5.52
2022-11-05T18:32:31.711Z,5.42
2022-11-05T18:34:58.533Z,5.85
2022-11-05T18:37:25.574Z,4.89
2022-11-05T18:39:53.368Z,5.58
2022-11-05T18:42:21.303Z,5.39
2022-11-05T18:44:48.673Z,5.70
2022-11-05T18:47:15.449Z,5.78
2022-11-05T18:49:45.050Z,5.30
2022-11-05T18:52:11.960Z,5.47
2022-11-05T18:54:38.818Z,5.61
2022-11-05T18:57:05.563Z,5.09
2022-11-05T18:59:38.228Z,5.57
2022-11-05T19:02:08.046Z,5.43
2022-11-05T19:04:36.194Z,5.43
2022-11-05T19:07:05.526Z,5.44
2022-11-05T19:09:37.915Z,5.68
2022-11-05T19:12:06.373Z,5.60
2022-11-05T19:14:33.898Z,5.58
2022-11-05T19:17:01.161Z,5.59
2022-11-05T19:19:28.487Z,5.59
2022-11-05T19:21:55.355Z,3.64
2022-11-05T19:24:22.130Z,3.95
2022-11-05T19:26:48.943Z,4.06
2022-11-05T19:29:15.538Z,5.40
2022-11-05T19:31:42.296Z,5.48
2022-11-05T19:34:08.933Z,5.36
2022-11-05T19:36:35.587Z,5.47
2022-11-05T19:39:06.474Z,5.55
2022-11-05T19:41:33.557Z,5.09
2022-11-05T19:44:01.764Z,5.30
2022-11-05T19:46:30.031Z,5.29
2022-11-05T19:48:56.822Z,5.33
2022-11-05T19:51:26.254Z,5.28
2022-11-05T19:53:55.034Z,5.01
2022-11-05T19:56:27.004Z,5.05
2022-11-05T19:58:54.357Z,5.31
2022-11-05T20:01:22.958Z,5.11
2022-11-05T20:03:50.863Z,5.28
2022-11-05T20:06:20.528Z,5.26
2022-11-05T20:09:15.337Z,5.23
2022-11-05T20:11:37.379Z,5.22
2022-11-05T20:14:05.067Z,5.01
2022-11-05T20:16:37.808Z,5.14
2022-11-05T20:19:11.244Z,4.96
2022-11-05T20:21:38.354Z,5.13
2022-11-05T20:24:05.446Z,5.17
2022-11-05T20:26:32.465Z,4.84
2022-11-05T20:28:59.146Z,5.26
2022-11-05T20:31:25.807Z,4.81
2022-11-05T20:33:53.405Z,5.30
2022-11-05T20:36:22.344Z,5.32
2022-11-05T20:38:50.950Z,5.30
2022-11-05T20:41:18.159Z,5.29
2022-11-05T20:43:45.035Z,5.11
2022-11-05T20:46:14.423Z,5.38
2022-11-05T20:48:43.811Z,5.24
2022-11-05T20:51:19.590Z,5.27
2022-11-05T20:53:47.154Z,5.19
2022-11-05T20:56:18.965Z,5.03
2022-11-05T20:58:46.163Z,5.12
2022-11-05T21:01:15.471Z,5.13
2022-11-05T21:03:42.939Z,5.01
2022-11-05T21:06:09.831Z,4.89
2022-11-05T21:08:36.512Z,5.03
2022-11-05T21:11:03.823Z,4.56
2022-11-05T21:13:30.818Z,4.80
2022-11-05T21:15:59.982Z,4.81
2022-11-05T21:18:29.665Z,4.86
2022-11-05T21:20:56.538Z,5.15
2022-11-05T21:23:23.672Z,5.34
2022-11-05T21:25:50.355Z,5.01
2022-11-05T21:28:17.210Z,5.16
2022-11-05T21:30:45.827Z,5.15
2022-11-05T21:33:14.208Z,5.12
2022-11-05T21:35:49.978Z,5.12
2022-11-05T21:38:17.646Z,5.31
2022-11-05T21:40:45.362Z,4.85
2022-11-05T21:43:13.057Z,4.96
2022-11-05T21:45:45.091Z,5.11
2022-11-05T21:48:12.809Z,4.70
2022-11-05T21:50:59.306Z,4.67
2022-11-05T21:53:44.895Z,4.60
2022-11-05T21:56:42.901Z,4.95
2022-11-05T21:59:31.080Z,4.91
2022-11-05T22:02:01.684Z,4.67
2022-11-05T22:04:35.329Z,4.67
2022-11-05T22:07:20.425Z,4.74
2022-11-05T22:09:47.780Z,4.61
2022-11-05T22:12:14.492Z,4.37
2022-11-05T22:14:41.753Z,4.47
2022-11-05T22:17:09.202Z,4.35
2022-11-05T22:19:36.578Z,4.61
2022-11-05T22:22:06.942Z,4.57
2022-11-05T22:24:34.756Z,4.69
2022-11-05T22:27:04.474Z,4.52
2022-11-05T22:29:31.091Z,4.36
2022-11-05T22:31:57.682Z,4.66
2022-11-05T22:34:25.254Z,4.38
2022-11-05T22:36:52.232Z,4.35
2022-11-05T22:39:19.174Z,4.65
2022-11-05T22:41:46.908Z,4.40
2022-11-05T22:44:14.185Z,4.45
2022-11-05T22:46:41.772Z,4.56
2022-11-05T22:49:08.856Z,4.53
2022-11-05T22:51:37.025Z,4.41
2022-11-05T22:54:04.819Z,4.58
2022-11-05T22:56:35.241Z,4.35
2022-11-05T22:59:02.503Z,4.35
2022-11-05T23:01:29.658Z,3.76
2022-11-05T23:03:57.967Z,4.06
2022-11-05T23:06:49.320Z,4.17
2022-11-05T23:09:50.412Z,4.23
2022-11-05T23:12:22.452Z,4.31
2022-11-05T23:14:49.123Z,4.22
2022-11-05T23:17:34.749Z,4.04
2022-11-05T23:20:19.840Z,4.10
2022-11-05T23:23:05.068Z,3.90
2022-11-05T23:25:31.783Z,3.83
2022-11-05T23:27:58.470Z,3.81
2022-11-05T23:30:27.123Z,3.71
2022-11-05T23:32:54.272Z,3.96
2022-11-05T23:35:40.844Z,3.59
2022-11-05T23:38:25.971Z,3.27
2022-11-05T23:41:11.263Z,3.91
2022-11-05T23:43:56.541Z,4.17
2022-11-05T23:46:41.974Z,3.97
2022-11-05T23:49:08.653Z,3.93
2022-11-05T23:51:35.290Z,3.67
2022-11-05T23:54:01.918Z,3.68
2022-11-05T23:56:28.562Z,3.50
2022-11-05T23:58:58.072Z,3.35
